sensor_id;sensor_type;location;lat;lon;timestamp;P1;durP1;ratioP1;P2;durP2;ratioP2
77204;SDS011;67992;46.618;18.850;2023-04-03T00:01:11;1.10;;;1.00;;
77204;SDS011;67992;46.618;18.850;2023-04-03T00:03:37;0.90;;;0.90;;
77204;SDS011;67992;46.618;18.850;2023-04-03T00:06:03;1.02;;;1.02;;
77204;SDS011;67992;46.618;18.850;2023-04-03T00:08:31;0.90;;;0.90;;
77204;SDS011;67992;46.618;18.850;2023-04-03T00:11:03;1.13;;;1.00;;
77204;SDS011;67992;46.618;18.850;2023-04-03T00:13:32;0.80;;;0.80;;
77204;SDS011;67992;46.618;18.850;2023-04-03T00:16:04;1.15;;;1.02;;
77204;SDS011;67992;46.618;18.850;2023-04-03T00:18:33;0.90;;;0.90;;
77204;SDS011;67992;46.618;18.850;2023-04-03T00:20:59;0.80;;;0.80;;
77204;SDS011;67992;46.618;18.850;2023-04-03T00:23:25;0.88;;;0.88;;
77204;SDS011;67992;46.618;18.850;2023-04-03T00:25:51;1.10;;;1.00;;
77204;SDS011;67992;46.618;18.850;2023-04-03T00:28:20;1.20;;;1.10;;
77204;SDS011;67992;46.618;18.850;2023-04-03T00:30:49;1.70;;;0.88;;
77204;SDS011;67992;46.618;18.850;2023-04-03T00:33:22;0.90;;;0.90;;
77204;SDS011;67992;46.618;18.850;2023-04-03T00:35:49;0.57;;;0.57;;
77204;SDS011;67992;46.618;18.850;2023-04-03T00:38:15;0.88;;;0.88;;
77204;SDS011;67992;46.618;18.850;2023-04-03T00:40:45;0.90;;;0.90;;
77204;SDS011;67992;46.618;18.850;2023-04-03T00:43:21;0.90;;;0.90;;
77204;SDS011;67992;46.618;18.850;2023-04-03T00:45:48;0.90;;;0.90;;
77204;SDS011;67992;46.618;18.850;2023-04-03T00:48:24;0.55;;;0.55;;
77204;SDS011;67992;46.618;18.850;2023-04-03T00:50:53;0.90;;;0.90;;
77204;SDS011;67992;46.618;18.850;2023-04-03T00:53:28;0.80;;;0.80;;
77204;SDS011;67992;46.618;18.850;2023-04-03T00:56:05;0.73;;;0.73;;
77204;SDS011;67992;46.618;18.850;2023-04-03T00:58:51;0.63;;;0.63;;
77204;SDS011;67992;46.618;18.850;2023-04-03T01:01:27;0.80;;;0.80;;
77204;SDS011;67992;46.618;18.850;2023-04-03T01:06:26;0.98;;;0.90;;
77204;SDS011;67992;46.618;18.850;2023-04-03T01:08:56;0.95;;;0.95;;
77204;SDS011;67992;46.618;18.850;2023-04-03T01:11:22;0.98;;;0.80;;
77204;SDS011;67992;46.618;18.850;2023-04-03T01:13:53;0.82;;;0.80;;
77204;SDS011;67992;46.618;18.850;2023-04-03T01:16:22;0.88;;;0.88;;
77204;SDS011;67992;46.618;18.850;2023-04-03T01:18:51;0.80;;;0.80;;
77204;SDS011;67992;46.618;18.850;2023-04-03T01:26:57;0.60;;;0.60;;
77204;SDS011;67992;46.618;18.850;2023-04-03T01:29:23;0.82;;;0.82;;
77204;SDS011;67992;46.618;18.850;2023-04-03T01:31:51;0.70;;;0.70;;
77204;SDS011;67992;46.618;18.850;2023-04-03T01:34:20;0.77;;;0.77;;
77204;SDS011;67992;46.618;18.850;2023-04-03T01:39:15;0.70;;;0.70;;
77204;SDS011;67992;46.618;18.850;2023-04-03T01:41:46;0.80;;;0.80;;
77204;SDS011;67992;46.618;18.850;2023-04-03T01:44:12;0.77;;;0.77;;
77204;SDS011;67992;46.618;18.850;2023-04-03T01:46:38;0.70;;;0.70;;
77204;SDS011;67992;46.618;18.850;2023-04-03T01:49:07;0.80;;;0.80;;
77204;SDS011;67992;46.618;18.850;2023-04-03T01:51:38;0.68;;;0.68;;
77204;SDS011;67992;46.618;18.850;2023-04-03T01:54:04;0.75;;;0.75;;
77204;SDS011;67992;46.618;18.850;2023-04-03T01:56:32;0.70;;;0.70;;
77204;SDS011;67992;46.618;18.850;2023-04-03T01:58:58;0.70;;;0.70;;
77204;SDS011;67992;46.618;18.850;2023-04-03T02:01:23;0.73;;;0.73;;
77204;SDS011;67992;46.618;18.850;2023-04-03T02:03:56;0.70;;;0.70;;
77204;SDS011;67992;46.618;18.850;2023-04-03T02:06:27;0.88;;;0.88;;
77204;SDS011;67992;46.618;18.850;2023-04-03T02:08:59;0.52;;;0.52;;
77204;SDS011;67992;46.618;18.850;2023-04-03T02:11:27;0.80;;;0.80;;
77204;SDS011;67992;46.618;18.850;2023-04-03T02:13:56;0.63;;;0.63;;
77204;SDS011;67992;46.618;18.850;2023-04-03T02:16:21;0.90;;;0.90;;
77204;SDS011;67992;46.618;18.850;2023-04-03T02:18:47;0.80;;;0.80;;
77204;SDS011;67992;46.618;18.850;2023-04-03T02:21:15;0.63;;;0.63;;
77204;SDS011;67992;46.618;18.850;2023-04-03T02:23:44;0.70;;;0.70;;
77204;SDS011;67992;46.618;18.850;2023-04-03T02:26:11;0.77;;;0.77;;
77204;SDS011;67992;46.618;18.850;2023-04-03T02:28:38;0.73;;;0.73;;
77204;SDS011;67992;46.618;18.850;2023-04-03T02:31:05;0.80;;;0.80;;
77204;SDS011;67992;46.618;18.850;2023-04-03T02:33:34;0.70;;;0.70;;
77204;SDS011;67992;46.618;18.850;2023-04-03T02:36:09;0.65;;;0.65;;
77204;SDS011;67992;46.618;18.850;2023-04-03T02:38:37;0.77;;;0.77;;
77204;SDS011;67992;46.618;18.850;2023-04-03T02:41:04;0.68;;;0.68;;
77204;SDS011;67992;46.618;18.850;2023-04-03T02:43:37;0.63;;;0.63;;
77204;SDS011;67992;46.618;18.850;2023-04-03T02:46:03;0.40;;;0.40;;
77204;SDS011;67992;46.618;18.850;2023-04-03T02:48:31;0.50;;;0.50;;
77204;SDS011;67992;46.618;18.850;2023-04-03T02:50:57;0.70;;;0.70;;
77204;SDS011;67992;46.618;18.850;2023-04-03T02:53:26;0.57;;;0.57;;
77204;SDS011;67992;46.618;18.850;2023-04-03T02:55:54;0.65;;;0.65;;
77204;SDS011;67992;46.618;18.850;2023-04-03T02:58:20;0.50;;;0.50;;
77204;SDS011;67992;46.618;18.850;2023-04-03T03:00:46;0.47;;;0.47;;
77204;SDS011;67992;46.618;18.850;2023-04-03T03:03:17;0.63;;;0.63;;
77204;SDS011;67992;46.618;18.850;2023-04-03T03:05:45;0.35;;;0.35;;
77204;SDS011;67992;46.618;18.850;2023-04-03T03:08:10;0.73;;;0.73;;
77204;SDS011;67992;46.618;18.850;2023-04-03T03:10:36;0.60;;;0.60;;
77204;SDS011;67992;46.618;18.850;2023-04-03T03:13:01;0.63;;;0.63;;
77204;SDS011;67992;46.618;18.850;2023-04-03T03:15:29;0.50;;;0.50;;
77204;SDS011;67992;46.618;18.850;2023-04-03T03:17:55;0.47;;;0.47;;
77204;SDS011;67992;46.618;18.850;2023-04-03T03:20:20;0.38;;;0.38;;
77204;SDS011;67992;46.618;18.850;2023-04-03T03:22:46;0.50;;;0.50;;
77204;SDS011;67992;46.618;18.850;2023-04-03T03:25:12;0.60;;;0.60;;
77204;SDS011;67992;46.618;18.850;2023-04-03T03:27:37;0.63;;;0.63;;
77204;SDS011;67992;46.618;18.850;2023-04-03T03:30:03;0.45;;;0.45;;
77204;SDS011;67992;46.618;18.850;2023-04-03T03:32:30;0.55;;;0.55;;
77204;SDS011;67992;46.618;18.850;2023-04-03T03:34:56;0.40;;;0.40;;
77204;SDS011;67992;46.618;18.850;2023-04-03T03:37:21;0.50;;;0.50;;
77204;SDS011;67992;46.618;18.850;2023-04-03T03:39:47;0.60;;;0.60;;
77204;SDS011;67992;46.618;18.850;2023-04-03T03:42:12;0.73;;;0.70;;
77204;SDS011;67992;46.618;18.850;2023-04-03T03:44:38;0.70;;;0.70;;
77204;SDS011;67992;46.618;18.850;2023-04-03T03:47:04;0.40;;;0.40;;
77204;SDS011;67992;46.618;18.850;2023-04-03T03:49:31;0.57;;;0.57;;
77204;SDS011;67992;46.618;18.850;2023-04-03T03:51:56;0.60;;;0.60;;
77204;SDS011;67992;46.618;18.850;2023-04-03T03:54:22;0.73;;;0.73;;
77204;SDS011;67992;46.618;18.850;2023-04-03T03:56:47;0.63;;;0.63;;
77204;SDS011;67992;46.618;18.850;2023-04-03T03:59:13;0.40;;;0.40;;
77204;SDS011;67992;46.618;18.850;2023-04-03T04:01:38;0.73;;;0.73;;
77204;SDS011;67992;46.618;18.850;2023-04-03T04:04:04;0.50;;;0.50;;
77204;SDS011;67992;46.618;18.850;2023-04-03T04:06:30;0.88;;;0.88;;
77204;SDS011;67992;46.618;18.850;2023-04-03T04:08:56;0.43;;;0.43;;
77204;SDS011;67992;46.618;18.850;2023-04-03T04:11:21;0.35;;;0.35;;
77204;SDS011;67992;46.618;18.850;2023-04-03T04:13:47;0.75;;;0.70;;
77204;SDS011;67992;46.618;18.850;2023-04-03T04:16:12;0.73;;;0.70;;
77204;SDS011;67992;46.618;18.850;2023-04-03T04:18:38;0.47;;;0.47;;
77204;SDS011;67992;46.618;18.850;2023-04-03T04:21:03;0.40;;;0.40;;
77204;SDS011;67992;46.618;18.850;2023-04-03T04:23:29;0.17;;;0.17;;
77204;SDS011;67992;46.618;18.850;2023-04-03T04:25:55;0.70;;;0.70;;
77204;SDS011;67992;46.618;18.850;2023-04-03T04:28:21;0.55;;;0.55;;
77204;SDS011;67992;46.618;18.850;2023-04-03T04:30:46;0.52;;;0.52;;
77204;SDS011;67992;46.618;18.850;2023-04-03T04:33:12;0.40;;;0.35;;
77204;SDS011;67992;46.618;18.850;2023-04-03T04:35:39;0.52;;;0.52;;
77204;SDS011;67992;46.618;18.850;2023-04-03T04:38:09;0.60;;;0.60;;
77204;SDS011;67992;46.618;18.850;2023-04-03T04:40:34;0.43;;;0.43;;
77204;SDS011;67992;46.618;18.850;2023-04-03T04:43:00;0.55;;;0.55;;
77204;SDS011;67992;46.618;18.850;2023-04-03T04:45:26;0.57;;;0.57;;
77204;SDS011;67992;46.618;18.850;2023-04-03T04:47:53;0.30;;;0.30;;
77204;SDS011;67992;46.618;18.850;2023-04-03T04:50:20;0.60;;;0.60;;
77204;SDS011;67992;46.618;18.850;2023-04-03T04:52:46;0.55;;;0.55;;
77204;SDS011;67992;46.618;18.850;2023-04-03T04:55:11;0.60;;;0.60;;
77204;SDS011;67992;46.618;18.850;2023-04-03T04:57:42;0.55;;;0.55;;
77204;SDS011;67992;46.618;18.850;2023-04-03T05:00:11;0.32;;;0.32;;
77204;SDS011;67992;46.618;18.850;2023-04-03T05:02:38;0.60;;;0.60;;
77204;SDS011;67992;46.618;18.850;2023-04-03T05:05:09;0.65;;;0.65;;
77204;SDS011;67992;46.618;18.850;2023-04-03T05:07:34;0.55;;;0.55;;
77204;SDS011;67992;46.618;18.850;2023-04-03T05:10:03;0.52;;;0.52;;
77204;SDS011;67992;46.618;18.850;2023-04-03T05:12:29;0.50;;;0.50;;
77204;SDS011;67992;46.618;18.850;2023-04-03T05:14:54;0.38;;;0.38;;
77204;SDS011;67992;46.618;18.850;2023-04-03T05:17:20;0.60;;;0.60;;
77204;SDS011;67992;46.618;18.850;2023-04-03T05:19:49;0.63;;;0.63;;
77204;SDS011;67992;46.618;18.850;2023-04-03T05:22:18;0.57;;;0.50;;
77204;SDS011;67992;46.618;18.850;2023-04-03T05:24:49;0.60;;;0.60;;
77204;SDS011;67992;46.618;18.850;2023-04-03T05:27:15;0.40;;;0.40;;
77204;SDS011;67992;46.618;18.850;2023-04-03T05:29:41;0.50;;;0.50;;
77204;SDS011;67992;46.618;18.850;2023-04-03T05:32:12;0.30;;;0.30;;
77204;SDS011;67992;46.618;18.850;2023-04-03T05:34:37;0.40;;;0.40;;
77204;SDS011;67992;46.618;18.850;2023-04-03T05:37:03;0.55;;;0.55;;
77204;SDS011;67992;46.618;18.850;2023-04-03T05:39:30;0.50;;;0.50;;
77204;SDS011;67992;46.618;18.850;2023-04-03T05:41:59;0.43;;;0.43;;
77204;SDS011;67992;46.618;18.850;2023-04-03T05:44:25;0.47;;;0.47;;
77204;SDS011;67992;46.618;18.850;2023-04-03T05:46:51;0.47;;;0.47;;
77204;SDS011;67992;46.618;18.850;2023-04-03T05:49:16;0.40;;;0.40;;
77204;SDS011;67992;46.618;18.850;2023-04-03T05:51:51;0.55;;;0.55;;
77204;SDS011;67992;46.618;18.850;2023-04-03T05:54:28;0.60;;;0.60;;
77204;SDS011;67992;46.618;18.850;2023-04-03T05:59:20;0.80;;;0.80;;
77204;SDS011;67992;46.618;18.850;2023-04-03T06:01:46;0.60;;;0.60;;
77204;SDS011;67992;46.618;18.850;2023-04-03T06:04:13;0.85;;;0.85;;
77204;SDS011;67992;46.618;18.850;2023-04-03T06:06:43;0.43;;;0.43;;
77204;SDS011;67992;46.618;18.850;2023-04-03T06:09:17;0.50;;;0.50;;
77204;SDS011;67992;46.618;18.850;2023-04-03T06:11:45;0.50;;;0.50;;
77204;SDS011;67992;46.618;18.850;2023-04-03T06:14:14;0.40;;;0.40;;
77204;SDS011;67992;46.618;18.850;2023-04-03T06:16:46;0.40;;;0.40;;
77204;SDS011;67992;46.618;18.850;2023-04-03T06:19:12;0.52;;;0.52;;
77204;SDS011;67992;46.618;18.850;2023-04-03T06:21:38;0.50;;;0.47;;
77204;SDS011;67992;46.618;18.850;2023-04-03T06:24:06;0.47;;;0.47;;
77204;SDS011;67992;46.618;18.850;2023-04-03T06:26:33;0.57;;;0.57;;
77204;SDS011;67992;46.618;18.850;2023-04-03T06:29:02;0.40;;;0.40;;
77204;SDS011;67992;46.618;18.850;2023-04-03T06:31:28;0.35;;;0.35;;
77204;SDS011;67992;46.618;18.850;2023-04-03T06:33:59;0.40;;;0.40;;
77204;SDS011;67992;46.618;18.850;2023-04-03T06:36:28;0.30;;;0.30;;
77204;SDS011;67992;46.618;18.850;2023-04-03T06:38:55;0.22;;;0.22;;
77204;SDS011;67992;46.618;18.850;2023-04-03T06:41:25;0.50;;;0.50;;
77204;SDS011;67992;46.618;18.850;2023-04-03T06:43:53;0.52;;;0.52;;
77204;SDS011;67992;46.618;18.850;2023-04-03T06:46:21;0.30;;;0.30;;
77204;SDS011;67992;46.618;18.850;2023-04-03T06:48:47;0.47;;;0.47;;
77204;SDS011;67992;46.618;18.850;2023-04-03T06:53:51;0.52;;;0.52;;
77204;SDS011;67992;46.618;18.850;2023-04-03T06:56:21;0.60;;;0.60;;
77204;SDS011;67992;46.618;18.850;2023-04-03T06:58:51;0.50;;;0.50;;
77204;SDS011;67992;46.618;18.850;2023-04-03T07:01:21;0.40;;;0.40;;
77204;SDS011;67992;46.618;18.850;2023-04-03T07:03:53;0.47;;;0.40;;
77204;SDS011;67992;46.618;18.850;2023-04-03T07:06:26;0.55;;;0.55;;
77204;SDS011;67992;46.618;18.850;2023-04-03T07:08:59;0.63;;;0.63;;
77204;SDS011;67992;46.618;18.850;2023-04-03T07:11:26;0.45;;;0.45;;
77204;SDS011;67992;46.618;18.850;2023-04-03T07:13:52;0.40;;;0.40;;
77204;SDS011;67992;46.618;18.850;2023-04-03T07:16:22;0.22;;;0.22;;
77204;SDS011;67992;46.618;18.850;2023-04-03T07:18:51;0.35;;;0.35;;
77204;SDS011;67992;46.618;18.850;2023-04-03T07:21:19;0.30;;;0.30;;
77204;SDS011;67992;46.618;18.850;2023-04-03T07:23:48;0.63;;;0.63;;
77204;SDS011;67992;46.618;18.850;2023-04-03T07:26:16;0.65;;;0.65;;
77204;SDS011;67992;46.618;18.850;2023-04-03T07:28:42;0.32;;;0.32;;
77204;SDS011;67992;46.618;18.850;2023-04-03T07:31:11;0.40;;;0.40;;
77204;SDS011;67992;46.618;18.850;2023-04-03T07:33:41;0.38;;;0.38;;
77204;SDS011;67992;46.618;18.850;2023-04-03T07:36:10;0.38;;;0.38;;
77204;SDS011;67992;46.618;18.850;2023-04-03T07:38:41;0.32;;;0.32;;
77204;SDS011;67992;46.618;18.850;2023-04-03T07:41:07;0.40;;;0.40;;
77204;SDS011;67992;46.618;18.850;2023-04-03T07:43:40;0.60;;;0.60;;
77204;SDS011;67992;46.618;18.850;2023-04-03T07:46:08;0.40;;;0.40;;
77204;SDS011;67992;46.618;18.850;2023-04-03T07:48:34;0.50;;;0.50;;
77204;SDS011;67992;46.618;18.850;2023-04-03T07:51:03;0.52;;;0.52;;
77204;SDS011;67992;46.618;18.850;2023-04-03T07:53:30;0.45;;;0.45;;
77204;SDS011;67992;46.618;18.850;2023-04-03T07:55:57;0.60;;;0.60;;
77204;SDS011;67992;46.618;18.850;2023-04-03T07:58:23;0.43;;;0.43;;
77204;SDS011;67992;46.618;18.850;2023-04-03T08:00:49;0.35;;;0.35;;
77204;SDS011;67992;46.618;18.850;2023-04-03T08:03:15;0.32;;;0.32;;
77204;SDS011;67992;46.618;18.850;2023-04-03T08:05:45;0.40;;;0.40;;
77204;SDS011;67992;46.618;18.850;2023-04-03T08:08:18;0.40;;;0.40;;
77204;SDS011;67992;46.618;18.850;2023-04-03T08:10:52;0.20;;;0.20;;
77204;SDS011;67992;46.618;18.850;2023-04-03T08:13:19;0.47;;;0.47;;
77204;SDS011;67992;46.618;18.850;2023-04-03T08:15:45;0.25;;;0.25;;
77204;SDS011;67992;46.618;18.850;2023-04-03T08:18:11;0.40;;;0.38;;
77204;SDS011;67992;46.618;18.850;2023-04-03T08:20:46;0.30;;;0.30;;
77204;SDS011;67992;46.618;18.850;2023-04-03T08:23:14;0.43;;;0.43;;
77204;SDS011;67992;46.618;18.850;2023-04-03T08:25:40;0.30;;;0.30;;
77204;SDS011;67992;46.618;18.850;2023-04-03T08:28:10;0.40;;;0.40;;
77204;SDS011;67992;46.618;18.850;2023-04-03T08:30:40;0.30;;;0.30;;
77204;SDS011;67992;46.618;18.850;2023-04-03T08:33:07;0.25;;;0.25;;
77204;SDS011;67992;46.618;18.850;2023-04-03T08:35:48;0.30;;;0.30;;
77204;SDS011;67992;46.618;18.850;2023-04-03T08:38:14;0.32;;;0.32;;
77204;SDS011;67992;46.618;18.850;2023-04-03T08:40:42;0.30;;;0.30;;
77204;SDS011;67992;46.618;18.850;2023-04-03T08:46:23;0.22;;;0.22;;
77204;SDS011;67992;46.618;18.850;2023-04-03T08:51:27;0.35;;;0.35;;
77204;SDS011;67992;46.618;18.850;2023-04-03T08:54:01;0.40;;;0.40;;
77204;SDS011;67992;46.618;18.850;2023-04-03T08:56:30;0.98;;;0.40;;
77204;SDS011;67992;46.618;18.850;2023-04-03T08:59:06;0.30;;;0.30;;
77204;SDS011;67992;46.618;18.850;2023-04-03T09:01:43;0.38;;;0.38;;
77204;SDS011;67992;46.618;18.850;2023-04-03T09:04:11;0.20;;;0.20;;
77204;SDS011;67992;46.618;18.850;2023-04-03T09:06:42;0.20;;;0.20;;
77204;SDS011;67992;46.618;18.850;2023-04-03T09:12:21;0.50;;;0.50;;
77204;SDS011;67992;46.618;18.850;2023-04-03T09:15:01;0.30;;;0.30;;
77204;SDS011;67992;46.618;18.850;2023-04-03T09:17:48;0.30;;;0.30;;
77204;SDS011;67992;46.618;18.850;2023-04-03T09:23:15;0.30;;;0.30;;
77204;SDS011;67992;46.618;18.850;2023-04-03T09:26:04;0.50;;;0.50;;
77204;SDS011;67992;46.618;18.850;2023-04-03T09:28:40;0.25;;;0.25;;
77204;SDS011;67992;46.618;18.850;2023-04-03T09:31:18;0.35;;;0.35;;
77204;SDS011;67992;46.618;18.850;2023-04-03T09:33:45;0.47;;;0.47;;
77204;SDS011;67992;46.618;18.850;2023-04-03T09:36:36;0.10;;;0.10;;
77204;SDS011;67992;46.618;18.850;2023-04-03T09:39:07;0.30;;;0.30;;
77204;SDS011;67992;46.618;18.850;2023-04-03T09:42:24;0.57;;;0.57;;
77204;SDS011;67992;46.618;18.850;2023-04-03T09:44:56;0.25;;;0.25;;
77204;SDS011;67992;46.618;18.850;2023-04-03T09:52:38;0.40;;;0.40;;
77204;SDS011;67992;46.618;18.850;2023-04-03T09:55:08;0.30;;;0.30;;
77204;SDS011;67992;46.618;18.850;2023-04-03T09:57:42;0.43;;;0.43;;
77204;SDS011;67992;46.618;18.850;2023-04-03T10:00:22;0.40;;;0.40;;
77204;SDS011;67992;46.618;18.850;2023-04-03T10:02:57;0.25;;;0.25;;
77204;SDS011;67992;46.618;18.850;2023-04-03T10:08:10;0.65;;;0.65;;
77204;SDS011;67992;46.618;18.850;2023-04-03T10:10:36;0.55;;;0.50;;
77204;SDS011;67992;46.618;18.850;2023-04-03T10:13:07;0.43;;;0.43;;
77204;SDS011;67992;46.618;18.850;2023-04-03T10:15:39;0.35;;;0.35;;
77204;SDS011;67992;46.618;18.850;2023-04-03T10:18:32;0.32;;;0.32;;
77204;SDS011;67992;46.618;18.850;2023-04-03T10:24:06;0.22;;;0.22;;
77204;SDS011;67992;46.618;18.850;2023-04-03T10:26:41;0.20;;;0.20;;
77204;SDS011;67992;46.618;18.850;2023-04-03T10:32:09;0.50;;;0.50;;
77204;SDS011;67992;46.618;18.850;2023-04-03T10:34:48;0.70;;;0.70;;
77204;SDS011;67992;46.618;18.850;2023-04-03T10:37:34;0.47;;;0.47;;
77204;SDS011;67992;46.618;18.850;2023-04-03T10:52:06;0.52;;;0.52;;
77204;SDS011;67992;46.618;18.850;2023-04-03T10:57:42;0.50;;;0.50;;
77204;SDS011;67992;46.618;18.850;2023-04-03T11:00:25;0.20;;;0.20;;
77204;SDS011;67992;46.618;18.850;2023-04-03T11:02:59;0.52;;;0.52;;
77204;SDS011;67992;46.618;18.850;2023-04-03T11:05:40;0.15;;;0.15;;
77204;SDS011;67992;46.618;18.850;2023-04-03T11:10:51;0.40;;;0.40;;
77204;SDS011;67992;46.618;18.850;2023-04-03T11:16:07;0.55;;;0.55;;
77204;SDS011;67992;46.618;18.850;2023-04-03T11:18:39;0.40;;;0.40;;
77204;SDS011;67992;46.618;18.850;2023-04-03T11:23:45;0.50;;;0.50;;
77204;SDS011;67992;46.618;18.850;2023-04-03T11:26:14;0.35;;;0.35;;
77204;SDS011;67992;46.618;18.850;2023-04-03T11:28:44;0.15;;;0.15;;
77204;SDS011;67992;46.618;18.850;2023-04-03T11:36:22;0.30;;;0.30;;
77204;SDS011;67992;46.618;18.850;2023-04-03T11:38:54;0.47;;;0.47;;
77204;SDS011;67992;46.618;18.850;2023-04-03T11:41:28;0.30;;;0.30;;
77204;SDS011;67992;46.618;18.850;2023-04-03T11:53:01;0.60;;;0.60;;
77204;SDS011;67992;46.618;18.850;2023-04-03T12:14:19;0.40;;;0.40;;
77204;SDS011;67992;46.618;18.850;2023-04-03T12:51:18;0.38;;;0.38;;
77204;SDS011;67992;46.618;18.850;2023-04-03T12:53:58;0.45;;;0.45;;
77204;SDS011;67992;46.618;18.850;2023-04-03T12:56:30;0.30;;;0.30;;
77204;SDS011;67992;46.618;18.850;2023-04-03T12:59:13;0.40;;;0.40;;
77204;SDS011;67992;46.618;18.850;2023-04-03T13:01:42;0.32;;;0.30;;
77204;SDS011;67992;46.618;18.850;2023-04-03T13:04:12;0.70;;;0.70;;
77204;SDS011;67992;46.618;18.850;2023-04-03T13:06:44;0.38;;;0.38;;
77204;SDS011;67992;46.618;18.850;2023-04-03T13:11:46;0.60;;;0.60;;
77204;SDS011;67992;46.618;18.850;2023-04-03T13:14:23;0.45;;;0.45;;
77204;SDS011;67992;46.618;18.850;2023-04-03T13:17:12;0.20;;;0.20;;
77204;SDS011;67992;46.618;18.850;2023-04-03T13:19:40;0.45;;;0.45;;
77204;SDS011;67992;46.618;18.850;2023-04-03T13:22:08;0.55;;;0.55;;
77204;SDS011;67992;46.618;18.850;2023-04-03T13:24:51;0.30;;;0.30;;
77204;SDS011;67992;46.618;18.850;2023-04-03T13:27:20;0.40;;;0.40;;
77204;SDS011;67992;46.618;18.850;2023-04-03T13:29:50;0.28;;;0.28;;
77204;SDS011;67992;46.618;18.850;2023-04-03T13:32:27;0.55;;;0.55;;
77204;SDS011;67992;46.618;18.850;2023-04-03T13:34:55;0.60;;;0.60;;
77204;SDS011;67992;46.618;18.850;2023-04-03T13:37:28;0.65;;;0.65;;
77204;SDS011;67992;46.618;18.850;2023-04-03T13:42:42;0.60;;;0.60;;
77204;SDS011;67992;46.618;18.850;2023-04-03T13:50:53;0.70;;;0.70;;
77204;SDS011;67992;46.618;18.850;2023-04-03T13:53:22;1.00;;;1.00;;
77204;SDS011;67992;46.618;18.850;2023-04-03T13:56:35;0.68;;;0.68;;
77204;SDS011;67992;46.618;18.850;2023-04-03T14:01:49;0.60;;;0.60;;
77204;SDS011;67992;46.618;18.850;2023-04-03T14:04:23;0.60;;;0.60;;
77204;SDS011;67992;46.618;18.850;2023-04-03T14:09:20;0.60;;;0.60;;
77204;SDS011;67992;46.618;18.850;2023-04-03T14:11:58;0.68;;;0.68;;
77204;SDS011;67992;46.618;18.850;2023-04-03T14:14:30;0.60;;;0.60;;
77204;SDS011;67992;46.618;18.850;2023-04-03T14:17:00;0.68;;;0.68;;
77204;SDS011;67992;46.618;18.850;2023-04-03T14:19:32;1.10;;;1.00;;
77204;SDS011;67992;46.618;18.850;2023-04-03T14:22:00;0.65;;;0.63;;
77204;SDS011;67992;46.618;18.850;2023-04-03T14:24:50;0.80;;;0.80;;
77204;SDS011;67992;46.618;18.850;2023-04-03T14:27:28;0.63;;;0.63;;
77204;SDS011;67992;46.618;18.850;2023-04-03T14:30:04;0.80;;;0.80;;
77204;SDS011;67992;46.618;18.850;2023-04-03T14:35:03;0.60;;;0.60;;
77204;SDS011;67992;46.618;18.850;2023-04-03T14:37:35;0.75;;;0.75;;
77204;SDS011;67992;46.618;18.850;2023-04-03T14:40:04;0.70;;;0.70;;
77204;SDS011;67992;46.618;18.850;2023-04-03T14:42:35;0.73;;;0.73;;
77204;SDS011;67992;46.618;18.850;2023-04-03T14:45:08;0.50;;;0.50;;
77204;SDS011;67992;46.618;18.850;2023-04-03T14:47:41;0.52;;;0.52;;
77204;SDS011;67992;46.618;18.850;2023-04-03T14:50:14;0.50;;;0.50;;
77204;SDS011;67992;46.618;18.850;2023-04-03T14:52:42;0.70;;;0.70;;
77204;SDS011;67992;46.618;18.850;2023-04-03T14:55:11;0.95;;;0.77;;
77204;SDS011;67992;46.618;18.850;2023-04-03T14:57:41;0.40;;;0.40;;
77204;SDS011;67992;46.618;18.850;2023-04-03T15:00:12;0.50;;;0.50;;
77204;SDS011;67992;46.618;18.850;2023-04-03T15:02:45;0.60;;;0.60;;
77204;SDS011;67992;46.618;18.850;2023-04-03T15:05:14;0.63;;;0.63;;
77204;SDS011;67992;46.618;18.850;2023-04-03T15:07:42;0.73;;;0.73;;
77204;SDS011;67992;46.618;18.850;2023-04-03T15:12:51;1.63;;;0.80;;
77204;SDS011;67992;46.618;18.850;2023-04-03T15:15:21;5.18;;;1.63;;
77204;SDS011;67992;46.618;18.850;2023-04-03T15:17:51;8.32;;;7.53;;
77204;SDS011;67992;46.618;18.850;2023-04-03T15:20:20;3.33;;;2.70;;
77204;SDS011;67992;46.618;18.850;2023-04-03T15:22:50;3.28;;;1.80;;
77204;SDS011;67992;46.618;18.850;2023-04-03T15:25:20;2.33;;;1.80;;
77204;SDS011;67992;46.618;18.850;2023-04-03T15:27:48;1.55;;;1.30;;
77204;SDS011;67992;46.618;18.850;2023-04-03T15:30:15;1.45;;;1.33;;
77204;SDS011;67992;46.618;18.850;2023-04-03T15:32:45;1.05;;;1.05;;
77204;SDS011;67992;46.618;18.850;2023-04-03T15:35:12;1.30;;;1.10;;
77204;SDS011;67992;46.618;18.850;2023-04-03T15:37:44;1.10;;;1.00;;
77204;SDS011;67992;46.618;18.850;2023-04-03T15:40:16;1.40;;;1.17;;
77204;SDS011;67992;46.618;18.850;2023-04-03T15:42:42;1.20;;;1.00;;
77204;SDS011;67992;46.618;18.850;2023-04-03T15:45:13;1.10;;;1.02;;
77204;SDS011;67992;46.618;18.850;2023-04-03T15:47:38;0.88;;;0.88;;
77204;SDS011;67992;46.618;18.850;2023-04-03T15:50:10;0.77;;;0.77;;
77204;SDS011;67992;46.618;18.850;2023-04-03T15:52:38;3.08;;;2.88;;
77204;SDS011;67992;46.618;18.850;2023-04-03T15:55:05;3.92;;;3.63;;
77204;SDS011;67992;46.618;18.850;2023-04-03T15:57:34;2.30;;;1.80;;
77204;SDS011;67992;46.618;18.850;2023-04-03T16:00:04;1.90;;;1.70;;
77204;SDS011;67992;46.618;18.850;2023-04-03T16:02:31;2.03;;;1.70;;
77204;SDS011;67992;46.618;18.850;2023-04-03T16:04:58;1.90;;;1.70;;
77204;SDS011;67992;46.618;18.850;2023-04-03T16:07:24;1.65;;;1.55;;
77204;SDS011;67992;46.618;18.850;2023-04-03T16:09:52;1.70;;;1.55;;
77204;SDS011;67992;46.618;18.850;2023-04-03T16:12:21;2.03;;;1.80;;
77204;SDS011;67992;46.618;18.850;2023-04-03T16:14:47;1.90;;;1.70;;
77204;SDS011;67992;46.618;18.850;2023-04-03T16:17:16;1.55;;;1.40;;
77204;SDS011;67992;46.618;18.850;2023-04-03T16:19:43;1.55;;;1.40;;
77204;SDS011;67992;46.618;18.850;2023-04-03T16:22:09;1.45;;;1.35;;
77204;SDS011;67992;46.618;18.850;2023-04-03T16:24:38;1.60;;;1.40;;
77204;SDS011;67992;46.618;18.850;2023-04-03T16:27:07;1.30;;;1.20;;
77204;SDS011;67992;46.618;18.850;2023-04-03T16:29:35;1.40;;;1.30;;
77204;SDS011;67992;46.618;18.850;2023-04-03T16:32:03;1.52;;;1.30;;
77204;SDS011;67992;46.618;18.850;2023-04-03T16:34:33;1.30;;;1.20;;
77204;SDS011;67992;46.618;18.850;2023-04-03T16:37:05;1.40;;;1.20;;
77204;SDS011;67992;46.618;18.850;2023-04-03T16:39:34;1.30;;;1.20;;
77204;SDS011;67992;46.618;18.850;2023-04-03T16:42:03;1.27;;;1.17;;
77204;SDS011;67992;46.618;18.850;2023-04-03T16:44:29;1.33;;;1.23;;
77204;SDS011;67992;46.618;18.850;2023-04-03T16:46:57;1.05;;;0.98;;
77204;SDS011;67992;46.618;18.850;2023-04-03T16:49:27;0.90;;;0.90;;
77204;SDS011;67992;46.618;18.850;2023-04-03T16:51:58;1.00;;;1.00;;
77204;SDS011;67992;46.618;18.850;2023-04-03T16:54:24;1.33;;;0.95;;
77204;SDS011;67992;46.618;18.850;2023-04-03T16:56:50;1.38;;;1.10;;
77204;SDS011;67992;46.618;18.850;2023-04-03T16:59:15;1.02;;;1.00;;
77204;SDS011;67992;46.618;18.850;2023-04-03T17:01:42;0.93;;;0.93;;
77204;SDS011;67992;46.618;18.850;2023-04-03T17:04:07;0.57;;;0.57;;
77204;SDS011;67992;46.618;18.850;2023-04-03T17:06:33;0.70;;;0.70;;
77204;SDS011;67992;46.618;18.850;2023-04-03T17:09:05;1.08;;;0.98;;
77204;SDS011;67992;46.618;18.850;2023-04-03T17:11:31;0.80;;;0.80;;
77204;SDS011;67992;46.618;18.850;2023-04-03T17:13:57;0.57;;;0.50;;
77204;SDS011;67992;46.618;18.850;2023-04-03T17:16:23;0.90;;;0.90;;
77204;SDS011;67992;46.618;18.850;2023-04-03T17:18:50;0.82;;;0.77;;
77204;SDS011;67992;46.618;18.850;2023-04-03T17:21:23;0.90;;;0.90;;